createdAt,value
2022-12-23T13:19:32.129Z,31.60
2022-12-23T13:23:43.479Z,30.27
2022-12-23T13:28:08.072Z,31.20
2022-12-23T13:32:22.990Z,29.63
2022-12-23T13:36:44.403Z,31.25
2022-12-23T13:41:02.825Z,28.65
2022-12-23T13:45:06.847Z,28.33
2022-12-23T13:49:36.519Z,29.95
2022-12-23T13:53:55.287Z,27.30
2022-12-23T13:58:15.942Z,23.42
2022-12-23T14:02:36.334Z,31.77
2022-12-23T14:06:38.099Z,20.38
2022-12-23T14:10:39.904Z,23.17
2022-12-23T14:15:03.593Z,19.15
2022-12-23T14:19:33.027Z,18.65
2022-12-23T14:24:03.994Z,22.45
2022-12-23T14:28:45.255Z,23.30
2022-12-23T14:32:58.589Z,17.60
2022-12-23T14:37:21.956Z,19.60
2022-12-23T14:41:38.984Z,21.40
2022-12-23T14:45:44.013Z,20.70
2022-12-23T14:49:45.873Z,22.52
2022-12-23T14:54:00.190Z,21.10
2022-12-23T14:58:20.550Z,22.25
2022-12-23T15:02:33.559Z,21.38
2022-12-23T15:06:41.028Z,20.83
2022-12-23T15:10:44.424Z,19.37
2022-12-23T15:14:55.289Z,20.20
2022-12-23T15:19:00.357Z,18.67
2022-12-23T15:23:09.076Z,19.75
2022-12-23T15:27:27.107Z,20.25
2022-12-23T15:31:42.519Z,17.88
2022-12-23T15:35:45.951Z,18.38
2022-12-23T15:39:52.372Z,17.40
2022-12-23T15:44:01.917Z,15.73
2022-12-23T15:48:05.755Z,15.77
2022-12-23T15:52:12.301Z,17.95
2022-12-23T15:56:24.363Z,18.15
2022-12-23T16:00:37.798Z,19.27
2022-12-23T16:04:39.620Z,15.80
2022-12-23T16:08:42.900Z,16.35
2022-12-23T16:12:44.961Z,15.00
2022-12-23T16:16:47.183Z,15.15
2022-12-23T16:20:53.803Z,14.93
2022-12-23T16:25:16.657Z,17.35
2022-12-23T16:29:18.443Z,16.48
2022-12-23T16:33:23.235Z,19.13
2022-12-23T16:37:24.929Z,18.48
2022-12-23T16:41:26.804Z,18.95
2022-12-23T16:45:31.677Z,20.55
2022-12-23T16:49:35.566Z,19.85
2022-12-23T16:53:37.434Z,17.00
2022-12-23T16:57:40.142Z,20.58
2022-12-23T17:01:47.562Z,25.15
2022-12-23T17:05:49.705Z,21.33
2022-12-23T17:09:51.484Z,21.38
2022-12-23T17:13:57.902Z,18.88
2022-12-23T17:18:03.317Z,17.27
2022-12-23T17:22:05.404Z,17.55
2022-12-23T17:26:07.084Z,16.13
2022-12-23T17:30:23.583Z,10.57
2022-12-23T17:34:25.393Z,13.05
2022-12-23T17:38:30.539Z,11.90
2022-12-23T17:42:33.000Z,6.22
2022-12-23T17:46:35.071Z,9.57
2022-12-23T17:50:37.678Z,12.98
2022-12-23T17:54:39.435Z,5.72
2022-12-23T17:58:42.510Z,10.38
2022-12-23T18:02:44.780Z,11.52
2022-12-23T18:06:46.658Z,15.00
2022-12-23T18:10:48.632Z,22.75
2022-12-23T18:14:50.458Z,18.65
2022-12-23T18:18:52.981Z,17.85
2022-12-23T18:22:55.374Z,26.63
2022-12-23T18:26:57.163Z,23.92
2022-12-23T18:30:59.042Z,28.73
2022-12-23T18:35:00.832Z,14.48
2022-12-23T18:39:02.878Z,42.95
2022-12-23T18:43:05.140Z,41.10
2022-12-23T18:47:06.969Z,48.10
2022-12-23T18:51:17.428Z,33.65
2022-12-23T18:55:19.383Z,35.10
2022-12-23T18:59:29.535Z,37.17
2022-12-23T19:03:32.665Z,33.97
2022-12-23T19:07:34.718Z,35.90
2022-12-23T19:11:36.491Z,30.48
2022-12-23T19:15:38.312Z,35.20
2022-12-23T19:19:40.069Z,38.05
2022-12-23T19:23:43.005Z,53.22
2022-12-23T19:27:45.680Z,34.10
2022-12-23T19:31:47.385Z,26.48
2022-12-23T19:35:49.213Z,36.88
2022-12-23T19:39:51.018Z,34.30
2022-12-23T19:43:52.768Z,37.17
2022-12-23T19:47:54.553Z,31.58
2022-12-23T19:51:56.278Z,35.42
2022-12-23T19:56:04.087Z,22.20
2022-12-23T20:00:06.816Z,31.52
2022-12-23T20:04:13.891Z,20.40
2022-12-23T20:08:16.546Z,19.27
2022-12-23T20:12:18.341Z,17.48
2022-12-23T20:16:20.824Z,15.45
2022-12-23T20:20:22.647Z,16.90
2022-12-23T20:24:24.362Z,21.60
2022-12-23T20:28:26.496Z,18.13
2022-12-23T20:32:28.277Z,15.00
2022-12-23T20:36:32.824Z,16.08
2022-12-23T20:40:34.618Z,19.73
2022-12-23T20:44:37.517Z,21.75
2022-12-23T20:48:39.483Z,18.30
2022-12-23T20:52:41.210Z,18.77
2022-12-23T20:56:43.039Z,15.73
2022-12-23T21:00:44.768Z,14.85
2022-12-23T21:04:46.557Z,13.80
2022-12-23T21:08:48.628Z,14.05
2022-12-23T21:12:50.382Z,20.63
2022-12-23T21:16:52.271Z,17.05
2022-12-23T21:20:58.867Z,13.07
2022-12-23T21:25:00.655Z,21.30
2022-12-23T21:29:05.040Z,17.90
2022-12-23T21:33:06.795Z,26.45
2022-12-23T21:37:08.633Z,19.80
2022-12-23T21:41:15.854Z,19.70
2022-12-23T21:45:17.651Z,7.60
2022-12-23T21:49:20.481Z,22.83
2022-12-23T21:53:22.258Z,15.00
2022-12-23T21:57:24.130Z,23.67
2022-12-23T22:01:27.156Z,22.77
2022-12-23T22:05:28.916Z,28.98
2022-12-23T22:09:32.752Z,17.65
2022-12-23T22:13:34.592Z,22.20
2022-12-23T22:17:36.436Z,21.90
2022-12-23T22:21:39.876Z,23.25
2022-12-23T22:25:41.798Z,19.13
2022-12-23T22:29:43.507Z,14.52
2022-12-23T22:33:45.567Z,27.05
2022-12-23T22:37:47.459Z,19.00
2022-12-23T22:41:51.044Z,22.10
2022-12-23T22:45:57.770Z,14.38
2022-12-23T22:49:59.700Z,18.83
2022-12-23T22:54:03.557Z,28.83
2022-12-23T22:58:05.347Z,29.95
2022-12-23T23:02:07.175Z,31.25
2022-12-23T23:06:11.280Z,25.05
2022-12-23T23:10:13.416Z,28.13
2022-12-23T23:14:15.645Z,16.50
2022-12-23T23:18:17.412Z,17.50
2022-12-23T23:22:21.853Z,15.77
2022-12-23T23:26:27.357Z,21.50
2022-12-23T23:30:29.675Z,13.73
2022-12-23T23:34:31.645Z,27.17
2022-12-23T23:38:33.603Z,32.17
2022-12-23T23:42:35.449Z,37.63
2022-12-23T23:46:37.381Z,24.95
2022-12-23T23:50:39.565Z,21.10
2022-12-23T23:54:41.392Z,22.67
2022-12-23T23:58:43.711Z,25.67
